sensor_id;sensor_type;location;lat;lon;timestamp;P1;durP1;ratioP1;P2;durP2;ratioP2
51292;SDS011;37377;45.186;9.778;2022-08-21T00:00:25;9.95;;;6.10;;
51292;SDS011;37377;45.186;9.778;2022-08-21T00:02:55;7.22;;;5.75;;
51292;SDS011;37377;45.186;9.778;2022-08-21T00:05:28;7.30;;;6.28;;
51292;SDS011;37377;45.186;9.778;2022-08-21T00:07:56;9.80;;;5.68;;
51292;SDS011;37377;45.186;9.778;2022-08-21T00:10:23;6.03;;;5.53;;
51292;SDS011;37377;45.186;9.778;2022-08-21T00:12:51;10.23;;;6.90;;
51292;SDS011;37377;45.186;9.778;2022-08-21T00:15:21;7.78;;;6.07;;
51292;SDS011;37377;45.186;9.778;2022-08-21T00:17:56;8.57;;;6.38;;
51292;SDS011;37377;45.186;9.778;2022-08-21T00:20:26;9.20;;;7.00;;
51292;SDS011;37377;45.186;9.778;2022-08-21T00:23:08;8.18;;;7.20;;
51292;SDS011;37377;45.186;9.778;2022-08-21T00:25:43;8.55;;;7.88;;
51292;SDS011;37377;45.186;9.778;2022-08-21T00:28:11;13.50;;;8.45;;
51292;SDS011;37377;45.186;9.778;2022-08-21T00:30:38;12.27;;;7.80;;
51292;SDS011;37377;45.186;9.778;2022-08-21T00:33:06;8.35;;;7.55;;
51292;SDS011;37377;45.186;9.778;2022-08-21T00:35:34;11.13;;;8.27;;
51292;SDS011;37377;45.186;9.778;2022-08-21T00:38:06;10.50;;;8.20;;
51292;SDS011;37377;45.186;9.778;2022-08-21T00:40:36;18.05;;;7.05;;
51292;SDS011;37377;45.186;9.778;2022-08-21T00:43:14;10.90;;;6.30;;
51292;SDS011;37377;45.186;9.778;2022-08-21T00:45:44;8.48;;;6.93;;
51292;SDS011;37377;45.186;9.778;2022-08-21T00:48:11;10.13;;;7.18;;
51292;SDS011;37377;45.186;9.778;2022-08-21T00:50:40;10.55;;;7.80;;
51292;SDS011;37377;45.186;9.778;2022-08-21T00:53:09;11.57;;;7.20;;
51292;SDS011;37377;45.186;9.778;2022-08-21T00:55:41;9.82;;;7.80;;
51292;SDS011;37377;45.186;9.778;2022-08-21T00:58:09;12.52;;;7.35;;
51292;SDS011;37377;45.186;9.778;2022-08-21T01:00:39;8.75;;;7.93;;
51292;SDS011;37377;45.186;9.778;2022-08-21T01:03:10;11.45;;;8.27;;
51292;SDS011;37377;45.186;9.778;2022-08-21T01:05:39;11.23;;;7.28;;
51292;SDS011;37377;45.186;9.778;2022-08-21T01:08:07;19.02;;;7.88;;
51292;SDS011;37377;45.186;9.778;2022-08-21T01:10:35;11.45;;;7.85;;
51292;SDS011;37377;45.186;9.778;2022-08-21T01:13:04;11.85;;;7.75;;
51292;SDS011;37377;45.186;9.778;2022-08-21T01:15:36;8.32;;;7.68;;
51292;SDS011;37377;45.186;9.778;2022-08-21T01:18:07;12.38;;;7.85;;
51292;SDS011;37377;45.186;9.778;2022-08-21T01:20:35;15.20;;;7.65;;
51292;SDS011;37377;45.186;9.778;2022-08-21T01:23:03;11.32;;;7.47;;
51292;SDS011;37377;45.186;9.778;2022-08-21T01:25:31;8.88;;;7.50;;
51292;SDS011;37377;45.186;9.778;2022-08-21T01:28:00;7.95;;;7.25;;
51292;SDS011;37377;45.186;9.778;2022-08-21T01:30:40;9.48;;;7.60;;
51292;SDS011;37377;45.186;9.778;2022-08-21T01:33:09;10.27;;;7.93;;
51292;SDS011;37377;45.186;9.778;2022-08-21T01:35:36;9.25;;;7.63;;
51292;SDS011;37377;45.186;9.778;2022-08-21T01:38:04;18.08;;;7.30;;
51292;SDS011;37377;45.186;9.778;2022-08-21T01:40:34;13.10;;;7.53;;
51292;SDS011;37377;45.186;9.778;2022-08-21T01:43:01;13.27;;;7.97;;
51292;SDS011;37377;45.186;9.778;2022-08-21T01:45:29;16.23;;;8.25;;
51292;SDS011;37377;45.186;9.778;2022-08-21T01:47:56;12.00;;;7.95;;
51292;SDS011;37377;45.186;9.778;2022-08-21T01:50:25;10.27;;;7.75;;
51292;SDS011;37377;45.186;9.778;2022-08-21T01:52:52;11.50;;;7.80;;
51292;SDS011;37377;45.186;9.778;2022-08-21T01:55:23;9.35;;;8.07;;
51292;SDS011;37377;45.186;9.778;2022-08-21T01:57:51;12.73;;;8.93;;
51292;SDS011;37377;45.186;9.778;2022-08-21T02:00:20;15.55;;;8.57;;
51292;SDS011;37377;45.186;9.778;2022-08-21T02:02:49;9.60;;;8.70;;
51292;SDS011;37377;45.186;9.778;2022-08-21T02:05:16;17.85;;;9.32;;
51292;SDS011;37377;45.186;9.778;2022-08-21T02:07:47;16.33;;;9.07;;
51292;SDS011;37377;45.186;9.778;2022-08-21T02:12:54;12.30;;;9.07;;
51292;SDS011;37377;45.186;9.778;2022-08-21T02:15:22;12.27;;;8.85;;
51292;SDS011;37377;45.186;9.778;2022-08-21T02:17:51;10.48;;;9.45;;
51292;SDS011;37377;45.186;9.778;2022-08-21T02:23:05;19.25;;;8.82;;
51292;SDS011;37377;45.186;9.778;2022-08-21T02:25:34;10.40;;;9.23;;
51292;SDS011;37377;45.186;9.778;2022-08-21T02:28:05;10.80;;;9.68;;
51292;SDS011;37377;45.186;9.778;2022-08-21T02:30:35;13.82;;;10.43;;
51292;SDS011;37377;45.186;9.778;2022-08-21T02:33:21;9.88;;;9.07;;
51292;SDS011;37377;45.186;9.778;2022-08-21T02:36:22;18.27;;;9.82;;
51292;SDS011;37377;45.186;9.778;2022-08-21T02:38:52;14.15;;;10.00;;
51292;SDS011;37377;45.186;9.778;2022-08-21T02:41:31;15.10;;;10.27;;
51292;SDS011;37377;45.186;9.778;2022-08-21T02:45:22;17.73;;;10.43;;
51292;SDS011;37377;45.186;9.778;2022-08-21T03:03:21;11.25;;;9.52;;
51292;SDS011;37377;45.186;9.778;2022-08-21T03:06:15;13.32;;;9.32;;
51292;SDS011;37377;45.186;9.778;2022-08-21T03:08:51;12.27;;;9.25;;
51292;SDS011;37377;45.186;9.778;2022-08-21T03:11:18;9.80;;;8.90;;
51292;SDS011;37377;45.186;9.778;2022-08-21T03:13:47;10.05;;;9.15;;
51292;SDS011;37377;45.186;9.778;2022-08-21T03:16:13;9.43;;;8.63;;
51292;SDS011;37377;45.186;9.778;2022-08-21T03:18:41;14.75;;;8.90;;
51292;SDS011;37377;45.186;9.778;2022-08-21T03:21:08;9.35;;;8.55;;
51292;SDS011;37377;45.186;9.778;2022-08-21T03:23:35;16.02;;;8.50;;
51292;SDS011;37377;45.186;9.778;2022-08-21T03:26:02;10.45;;;9.07;;
51292;SDS011;37377;45.186;9.778;2022-08-21T03:28:29;9.50;;;8.38;;
51292;SDS011;37377;45.186;9.778;2022-08-21T03:30:56;9.18;;;8.27;;
51292;SDS011;37377;45.186;9.778;2022-08-21T03:33:23;12.38;;;8.90;;
51292;SDS011;37377;45.186;9.778;2022-08-21T03:35:58;12.63;;;8.77;;
51292;SDS011;37377;45.186;9.778;2022-08-21T03:38:27;11.13;;;8.40;;
51292;SDS011;37377;45.186;9.778;2022-08-21T03:41:17;9.35;;;8.55;;
51292;SDS011;37377;45.186;9.778;2022-08-21T03:43:55;11.02;;;9.52;;
51292;SDS011;37377;45.186;9.778;2022-08-21T03:46:26;13.57;;;10.23;;
51292;SDS011;37377;45.186;9.778;2022-08-21T03:48:53;12.68;;;9.73;;
51292;SDS011;37377;45.186;9.778;2022-08-21T03:51:20;13.98;;;9.95;;
51292;SDS011;37377;45.186;9.778;2022-08-21T03:53:47;12.95;;;9.85;;
51292;SDS011;37377;45.186;9.778;2022-08-21T03:56:14;12.85;;;10.68;;
51292;SDS011;37377;45.186;9.778;2022-08-21T03:58:42;11.23;;;10.05;;
51292;SDS011;37377;45.186;9.778;2022-08-21T04:01:11;10.70;;;9.70;;
51292;SDS011;37377;45.186;9.778;2022-08-21T04:03:41;10.38;;;9.40;;
51292;SDS011;37377;45.186;9.778;2022-08-21T04:06:08;14.68;;;9.88;;
51292;SDS011;37377;45.186;9.778;2022-08-21T04:08:41;17.95;;;10.52;;
51292;SDS011;37377;45.186;9.778;2022-08-21T04:13:01;16.80;;;10.60;;
51292;SDS011;37377;45.186;9.778;2022-08-21T04:41:44;14.00;;;7.68;;
51292;SDS011;37377;45.186;9.778;2022-08-21T04:45:31;17.42;;;8.48;;
51292;SDS011;37377;45.186;9.778;2022-08-21T04:49:30;14.87;;;8.60;;
51292;SDS011;37377;45.186;9.778;2022-08-21T04:58:17;13.52;;;7.90;;
51292;SDS011;37377;45.186;9.778;2022-08-21T05:02:36;14.23;;;7.75;;
51292;SDS011;37377;45.186;9.778;2022-08-21T05:06:44;8.43;;;7.32;;
51292;SDS011;37377;45.186;9.778;2022-08-21T05:09:30;14.13;;;7.30;;
51292;SDS011;37377;45.186;9.778;2022-08-21T05:12:08;8.80;;;7.10;;
51292;SDS011;37377;45.186;9.778;2022-08-21T05:17:05;12.77;;;6.47;;
51292;SDS011;37377;45.186;9.778;2022-08-21T05:19:32;11.98;;;6.75;;
51292;SDS011;37377;45.186;9.778;2022-08-21T05:21:59;5.30;;;4.32;;
51292;SDS011;37377;45.186;9.778;2022-08-21T05:24:27;5.32;;;3.70;;
51292;SDS011;37377;45.186;9.778;2022-08-21T05:26:54;4.60;;;3.40;;
51292;SDS011;37377;45.186;9.778;2022-08-21T05:29:21;4.63;;;3.40;;
51292;SDS011;37377;45.186;9.778;2022-08-21T05:31:48;6.47;;;3.92;;
51292;SDS011;37377;45.186;9.778;2022-08-21T05:34:21;4.63;;;3.05;;
51292;SDS011;37377;45.186;9.778;2022-08-21T05:36:48;8.07;;;3.08;;
51292;SDS011;37377;45.186;9.778;2022-08-21T05:39:15;3.03;;;2.72;;
51292;SDS011;37377;45.186;9.778;2022-08-21T05:41:42;2.60;;;2.40;;
51292;SDS011;37377;45.186;9.778;2022-08-21T05:44:09;6.00;;;2.70;;
51292;SDS011;37377;45.186;9.778;2022-08-21T05:46:37;5.70;;;3.25;;
51292;SDS011;37377;45.186;9.778;2022-08-21T05:49:04;3.90;;;2.75;;
51292;SDS011;37377;45.186;9.778;2022-08-21T05:51:31;8.15;;;2.78;;
51292;SDS011;37377;45.186;9.778;2022-08-21T05:53:58;7.43;;;2.78;;
51292;SDS011;37377;45.186;9.778;2022-08-21T05:56:25;6.32;;;3.17;;
51292;SDS011;37377;45.186;9.778;2022-08-21T05:58:52;6.75;;;2.50;;
51292;SDS011;37377;45.186;9.778;2022-08-21T06:01:19;3.38;;;2.92;;
51292;SDS011;37377;45.186;9.778;2022-08-21T06:03:46;4.22;;;2.75;;
51292;SDS011;37377;45.186;9.778;2022-08-21T06:06:13;4.78;;;3.15;;
51292;SDS011;37377;45.186;9.778;2022-08-21T06:08:40;4.15;;;2.92;;
51292;SDS011;37377;45.186;9.778;2022-08-21T06:11:07;10.15;;;3.92;;
51292;SDS011;37377;45.186;9.778;2022-08-21T06:13:35;9.80;;;4.10;;
51292;SDS011;37377;45.186;9.778;2022-08-21T06:16:12;5.32;;;3.63;;
51292;SDS011;37377;45.186;9.778;2022-08-21T06:18:42;4.88;;;4.28;;
51292;SDS011;37377;45.186;9.778;2022-08-21T06:21:11;11.25;;;4.32;;
51292;SDS011;37377;45.186;9.778;2022-08-21T06:23:40;6.93;;;4.43;;
51292;SDS011;37377;45.186;9.778;2022-08-21T06:26:07;7.30;;;5.50;;
51292;SDS011;37377;45.186;9.778;2022-08-21T06:28:35;5.05;;;4.63;;
51292;SDS011;37377;45.186;9.778;2022-08-21T06:31:14;8.05;;;4.82;;
51292;SDS011;37377;45.186;9.778;2022-08-21T06:33:45;10.90;;;4.93;;
51292;SDS011;37377;45.186;9.778;2022-08-21T06:36:13;9.18;;;5.55;;
51292;SDS011;37377;45.186;9.778;2022-08-21T06:38:40;5.15;;;4.55;;
51292;SDS011;37377;45.186;9.778;2022-08-21T06:41:16;11.77;;;5.43;;
51292;SDS011;37377;45.186;9.778;2022-08-21T06:43:49;8.35;;;5.63;;
51292;SDS011;37377;45.186;9.778;2022-08-21T06:46:16;6.80;;;6.15;;
51292;SDS011;37377;45.186;9.778;2022-08-21T06:48:43;7.20;;;6.50;;
51292;SDS011;37377;45.186;9.778;2022-08-21T06:51:10;10.48;;;6.70;;
51292;SDS011;37377;45.186;9.778;2022-08-21T06:53:37;7.70;;;6.45;;
51292;SDS011;37377;45.186;9.778;2022-08-21T06:56:04;7.70;;;6.00;;
51292;SDS011;37377;45.186;9.778;2022-08-21T06:58:31;7.18;;;6.18;;
51292;SDS011;37377;45.186;9.778;2022-08-21T07:00:58;7.40;;;6.70;;
51292;SDS011;37377;45.186;9.778;2022-08-21T07:03:28;7.53;;;6.75;;
51292;SDS011;37377;45.186;9.778;2022-08-21T07:05:58;10.93;;;6.72;;
51292;SDS011;37377;45.186;9.778;2022-08-21T07:08:26;6.03;;;5.63;;
51292;SDS011;37377;45.186;9.778;2022-08-21T07:10:55;10.80;;;5.25;;
51292;SDS011;37377;45.186;9.778;2022-08-21T07:13:23;6.03;;;5.32;;
51292;SDS011;37377;45.186;9.778;2022-08-21T07:15:50;6.40;;;4.97;;
51292;SDS011;37377;45.186;9.778;2022-08-21T07:18:17;12.98;;;6.13;;
51292;SDS011;37377;45.186;9.778;2022-08-21T07:20:44;10.68;;;5.93;;
51292;SDS011;37377;45.186;9.778;2022-08-21T07:23:14;7.18;;;4.13;;
51292;SDS011;37377;45.186;9.778;2022-08-21T07:25:45;6.55;;;4.25;;
51292;SDS011;37377;45.186;9.778;2022-08-21T07:28:12;4.50;;;3.60;;
51292;SDS011;37377;45.186;9.778;2022-08-21T07:30:39;4.97;;;3.63;;
51292;SDS011;37377;45.186;9.778;2022-08-21T07:33:06;2.80;;;2.45;;
51292;SDS011;37377;45.186;9.778;2022-08-21T07:35:33;6.20;;;3.13;;
51292;SDS011;37377;45.186;9.778;2022-08-21T07:38:00;8.60;;;3.30;;
51292;SDS011;37377;45.186;9.778;2022-08-21T07:40:27;5.47;;;3.10;;
51292;SDS011;37377;45.186;9.778;2022-08-21T07:42:54;10.38;;;3.28;;
51292;SDS011;37377;45.186;9.778;2022-08-21T07:45:22;3.63;;;2.67;;
51292;SDS011;37377;45.186;9.778;2022-08-21T07:47:51;4.50;;;3.58;;
51292;SDS011;37377;45.186;9.778;2022-08-21T07:50:23;10.15;;;3.00;;
51292;SDS011;37377;45.186;9.778;2022-08-21T07:52:51;5.18;;;3.38;;
51292;SDS011;37377;45.186;9.778;2022-08-21T07:55:19;8.63;;;3.35;;
51292;SDS011;37377;45.186;9.778;2022-08-21T07:57:48;10.95;;;2.65;;
51292;SDS011;37377;45.186;9.778;2022-08-21T08:00:17;8.95;;;3.08;;
51292;SDS011;37377;45.186;9.778;2022-08-21T08:02:47;12.98;;;3.22;;
51292;SDS011;37377;45.186;9.778;2022-08-21T08:05:17;8.93;;;2.25;;
51292;SDS011;37377;45.186;9.778;2022-08-21T08:07:46;3.90;;;2.38;;
51292;SDS011;37377;45.186;9.778;2022-08-21T08:10:14;3.60;;;2.42;;
51292;SDS011;37377;45.186;9.778;2022-08-21T08:12:42;5.70;;;2.30;;
51292;SDS011;37377;45.186;9.778;2022-08-21T08:15:11;8.68;;;2.55;;
51292;SDS011;37377;45.186;9.778;2022-08-21T08:17:42;4.13;;;2.63;;
51292;SDS011;37377;45.186;9.778;2022-08-21T08:20:14;2.55;;;2.25;;
51292;SDS011;37377;45.186;9.778;2022-08-21T08:22:44;6.78;;;2.55;;
51292;SDS011;37377;45.186;9.778;2022-08-21T08:25:16;4.95;;;2.35;;
51292;SDS011;37377;45.186;9.778;2022-08-21T08:27:44;2.90;;;2.42;;
51292;SDS011;37377;45.186;9.778;2022-08-21T08:30:12;3.08;;;2.67;;
51292;SDS011;37377;45.186;9.778;2022-08-21T08:32:40;4.32;;;2.50;;
51292;SDS011;37377;45.186;9.778;2022-08-21T08:35:08;6.18;;;2.47;;
51292;SDS011;37377;45.186;9.778;2022-08-21T08:37:37;4.28;;;2.20;;
51292;SDS011;37377;45.186;9.778;2022-08-21T08:40:11;2.05;;;1.67;;
51292;SDS011;37377;45.186;9.778;2022-08-21T08:42:41;6.55;;;2.00;;
51292;SDS011;37377;45.186;9.778;2022-08-21T08:45:10;4.57;;;1.90;;
51292;SDS011;37377;45.186;9.778;2022-08-21T08:47:42;1.98;;;1.25;;
51292;SDS011;37377;45.186;9.778;2022-08-21T08:50:13;1.13;;;0.90;;
51292;SDS011;37377;45.186;9.778;2022-08-21T08:53:05;1.77;;;1.00;;
51292;SDS011;37377;45.186;9.778;2022-08-21T08:55:41;4.45;;;1.13;;
51292;SDS011;37377;45.186;9.778;2022-08-21T08:58:18;7.90;;;1.40;;
51292;SDS011;37377;45.186;9.778;2022-08-21T09:00:51;1.48;;;1.02;;
51292;SDS011;37377;45.186;9.778;2022-08-21T09:03:20;1.25;;;0.90;;
51292;SDS011;37377;45.186;9.778;2022-08-21T09:05:52;3.42;;;1.10;;
51292;SDS011;37377;45.186;9.778;2022-08-21T09:13:39;6.47;;;1.20;;
51292;SDS011;37377;45.186;9.778;2022-08-21T09:19:03;4.85;;;1.33;;
51292;SDS011;37377;45.186;9.778;2022-08-21T09:21:59;3.15;;;1.30;;
51292;SDS011;37377;45.186;9.778;2022-08-21T09:24:47;2.40;;;1.50;;
51292;SDS011;37377;45.186;9.778;2022-08-21T09:27:27;2.22;;;1.38;;
51292;SDS011;37377;45.186;9.778;2022-08-21T09:29:55;6.20;;;1.77;;
51292;SDS011;37377;45.186;9.778;2022-08-21T09:32:25;2.17;;;1.00;;
51292;SDS011;37377;45.186;9.778;2022-08-21T09:46:01;7.55;;;1.20;;
51292;SDS011;37377;45.186;9.778;2022-08-21T09:48:47;1.38;;;1.00;;
51292;SDS011;37377;45.186;9.778;2022-08-21T09:53:46;4.72;;;1.00;;
51292;SDS011;37377;45.186;9.778;2022-08-21T09:56:20;2.08;;;1.25;;
51292;SDS011;37377;45.186;9.778;2022-08-21T09:59:17;5.53;;;1.50;;
51292;SDS011;37377;45.186;9.778;2022-08-21T10:01:48;4.25;;;1.40;;
51292;SDS011;37377;45.186;9.778;2022-08-21T10:04:19;4.03;;;1.15;;
51292;SDS011;37377;45.186;9.778;2022-08-21T10:06:48;5.57;;;1.17;;
51292;SDS011;37377;45.186;9.778;2022-08-21T10:09:17;1.10;;;1.00;;
51292;SDS011;37377;45.186;9.778;2022-08-21T10:14:50;2.00;;;1.08;;
51292;SDS011;37377;45.186;9.778;2022-08-21T10:17:45;4.50;;;1.20;;
51292;SDS011;37377;45.186;9.778;2022-08-21T10:25:57;4.55;;;1.10;;
51292;SDS011;37377;45.186;9.778;2022-08-21T10:29:01;2.35;;;0.90;;
51292;SDS011;37377;45.186;9.778;2022-08-21T10:39:37;4.35;;;1.00;;
51292;SDS011;37377;45.186;9.778;2022-08-21T10:55:12;2.92;;;0.70;;
51292;SDS011;37377;45.186;9.778;2022-08-21T10:57:44;1.52;;;0.70;;
51292;SDS011;37377;45.186;9.778;2022-08-21T11:00:16;0.73;;;0.73;;
51292;SDS011;37377;45.186;9.778;2022-08-21T11:05:44;2.60;;;0.80;;
51292;SDS011;37377;45.186;9.778;2022-08-21T11:11:34;0.80;;;0.80;;
51292;SDS011;37377;45.186;9.778;2022-08-21T11:13:55;2.30;;;0.90;;
51292;SDS011;37377;45.186;9.778;2022-08-21T11:16:33;2.67;;;0.88;;
51292;SDS011;37377;45.186;9.778;2022-08-21T11:19:08;0.70;;;0.70;;
51292;SDS011;37377;45.186;9.778;2022-08-21T11:21:43;1.27;;;0.73;;
51292;SDS011;37377;45.186;9.778;2022-08-21T11:24:29;2.05;;;0.80;;
51292;SDS011;37377;45.186;9.778;2022-08-21T11:27:08;1.98;;;0.88;;
51292;SDS011;37377;45.186;9.778;2022-08-21T11:29:39;2.95;;;0.70;;
51292;SDS011;37377;45.186;9.778;2022-08-21T11:37:40;1.20;;;0.80;;
51292;SDS011;37377;45.186;9.778;2022-08-21T11:45:51;1.60;;;0.80;;
51292;SDS011;37377;45.186;9.778;2022-08-21T11:51:23;1.73;;;0.80;;
51292;SDS011;37377;45.186;9.778;2022-08-21T11:56:23;1.15;;;0.80;;
51292;SDS011;37377;45.186;9.778;2022-08-21T11:58:55;5.60;;;1.05;;
51292;SDS011;37377;45.186;9.778;2022-08-21T12:01:25;4.03;;;0.80;;
51292;SDS011;37377;45.186;9.778;2022-08-21T12:03:59;3.75;;;0.73;;
51292;SDS011;37377;45.186;9.778;2022-08-21T12:06:30;1.35;;;1.00;;
51292;SDS011;37377;45.186;9.778;2022-08-21T12:09:02;2.30;;;1.08;;
51292;SDS011;37377;45.186;9.778;2022-08-21T12:11:32;2.33;;;1.00;;
51292;SDS011;37377;45.186;9.778;2022-08-21T12:14:36;7.13;;;1.13;;
51292;SDS011;37377;45.186;9.778;2022-08-21T12:19:32;2.85;;;2.00;;
51292;SDS011;37377;45.186;9.778;2022-08-21T12:29:45;1.93;;;0.83;;
51292;SDS011;37377;45.186;9.778;2022-08-21T12:34:41;3.63;;;0.82;;
51292;SDS011;37377;45.186;9.778;2022-08-21T12:39:57;2.22;;;0.82;;
51292;SDS011;37377;45.186;9.778;2022-08-21T12:42:39;2.75;;;0.90;;
51292;SDS011;37377;45.186;9.778;2022-08-21T12:45:17;1.00;;;0.80;;
51292;SDS011;37377;45.186;9.778;2022-08-21T12:48:18;1.25;;;0.95;;
51292;SDS011;37377;45.186;9.778;2022-08-21T12:50:51;1.05;;;0.70;;
51292;SDS011;37377;45.186;9.778;2022-08-21T12:53:30;2.53;;;0.88;;
51292;SDS011;37377;45.186;9.778;2022-08-21T12:56:03;3.67;;;0.75;;
51292;SDS011;37377;45.186;9.778;2022-08-21T12:58:35;1.40;;;0.90;;
51292;SDS011;37377;45.186;9.778;2022-08-21T13:01:04;3.17;;;1.00;;
51292;SDS011;37377;45.186;9.778;2022-08-21T13:03:34;2.03;;;0.80;;
51292;SDS011;37377;45.186;9.778;2022-08-21T13:06:03;1.40;;;0.80;;
51292;SDS011;37377;45.186;9.778;2022-08-21T13:08:31;3.80;;;0.90;;
51292;SDS011;37377;45.186;9.778;2022-08-21T13:11:05;2.03;;;0.90;;
51292;SDS011;37377;45.186;9.778;2022-08-21T13:13:40;3.22;;;0.60;;
51292;SDS011;37377;45.186;9.778;2022-08-21T13:16:18;2.83;;;0.80;;
51292;SDS011;37377;45.186;9.778;2022-08-21T13:18:55;1.33;;;0.80;;
51292;SDS011;37377;45.186;9.778;2022-08-21T13:21:32;2.25;;;0.90;;
51292;SDS011;37377;45.186;9.778;2022-08-21T13:24:34;2.72;;;0.90;;
51292;SDS011;37377;45.186;9.778;2022-08-21T13:27:19;2.58;;;1.27;;
51292;SDS011;37377;45.186;9.778;2022-08-21T13:29:49;4.07;;;0.70;;
51292;SDS011;37377;45.186;9.778;2022-08-21T13:32:27;1.95;;;1.00;;
51292;SDS011;37377;45.186;9.778;2022-08-21T13:34:55;0.90;;;0.80;;
51292;SDS011;37377;45.186;9.778;2022-08-21T13:37:24;7.50;;;0.90;;
51292;SDS011;37377;45.186;9.778;2022-08-21T13:39:53;2.60;;;0.90;;
51292;SDS011;37377;45.186;9.778;2022-08-21T13:42:20;4.35;;;0.70;;
51292;SDS011;37377;45.186;9.778;2022-08-21T13:44:47;5.07;;;0.80;;
51292;SDS011;37377;45.186;9.778;2022-08-21T13:47:15;0.88;;;0.85;;
51292;SDS011;37377;45.186;9.778;2022-08-21T13:49:43;7.70;;;1.20;;
51292;SDS011;37377;45.186;9.778;2022-08-21T13:52:16;0.90;;;0.90;;
51292;SDS011;37377;45.186;9.778;2022-08-21T13:54:57;6.78;;;0.80;;
51292;SDS011;37377;45.186;9.778;2022-08-21T13:57:27;1.77;;;0.77;;
51292;SDS011;37377;45.186;9.778;2022-08-21T14:02:48;0.80;;;0.80;;
51292;SDS011;37377;45.186;9.778;2022-08-21T14:05:27;2.78;;;0.90;;
51292;SDS011;37377;45.186;9.778;2022-08-21T14:07:58;3.20;;;0.70;;
51292;SDS011;37377;45.186;9.778;2022-08-21T14:10:31;2.85;;;0.80;;
51292;SDS011;37377;45.186;9.778;2022-08-21T14:13:03;2.97;;;0.88;;
51292;SDS011;37377;45.186;9.778;2022-08-21T14:15:33;1.70;;;1.13;;
51292;SDS011;37377;45.186;9.778;2022-08-21T14:18:13;1.13;;;0.82;;
51292;SDS011;37377;45.186;9.778;2022-08-21T14:20:42;5.93;;;0.80;;
51292;SDS011;37377;45.186;9.778;2022-08-21T14:23:09;3.58;;;1.08;;
51292;SDS011;37377;45.186;9.778;2022-08-21T14:25:41;5.25;;;1.08;;
51292;SDS011;37377;45.186;9.778;2022-08-21T14:28:19;4.00;;;0.80;;
51292;SDS011;37377;45.186;9.778;2022-08-21T14:33:23;4.57;;;0.90;;
51292;SDS011;37377;45.186;9.778;2022-08-21T14:35:52;3.58;;;0.90;;
51292;SDS011;37377;45.186;9.778;2022-08-21T14:38:20;0.98;;;0.80;;
51292;SDS011;37377;45.186;9.778;2022-08-21T14:40:50;5.88;;;0.80;;
51292;SDS011;37377;45.186;9.778;2022-08-21T14:43:19;2.40;;;0.77;;
51292;SDS011;37377;45.186;9.778;2022-08-21T14:45:47;4.82;;;0.70;;
51292;SDS011;37377;45.186;9.778;2022-08-21T14:48:14;5.63;;;0.85;;
51292;SDS011;37377;45.186;9.778;2022-08-21T14:50:41;2.47;;;0.60;;
51292;SDS011;37377;45.186;9.778;2022-08-21T14:53:08;7.85;;;1.67;;
51292;SDS011;37377;45.186;9.778;2022-08-21T14:55:38;3.03;;;0.90;;
51292;SDS011;37377;45.186;9.778;2022-08-21T14:58:24;1.05;;;0.60;;
51292;SDS011;37377;45.186;9.778;2022-08-21T15:00:52;5.13;;;0.70;;
51292;SDS011;37377;45.186;9.778;2022-08-21T15:03:20;1.58;;;0.60;;
51292;SDS011;37377;45.186;9.778;2022-08-21T15:05:51;2.25;;;0.80;;
51292;SDS011;37377;45.186;9.778;2022-08-21T15:08:18;1.52;;;0.70;;
51292;SDS011;37377;45.186;9.778;2022-08-21T15:10:45;1.05;;;0.60;;
51292;SDS011;37377;45.186;9.778;2022-08-21T15:13:32;2.55;;;0.80;;
51292;SDS011;37377;45.186;9.778;2022-08-21T15:16:00;3.40;;;0.75;;
51292;SDS011;37377;45.186;9.778;2022-08-21T15:18:28;1.70;;;0.88;;
51292;SDS011;37377;45.186;9.778;2022-08-21T15:20:56;0.70;;;0.70;;
51292;SDS011;37377;45.186;9.778;2022-08-21T15:23:23;1.63;;;0.60;;
51292;SDS011;37377;45.186;9.778;2022-08-21T15:25:50;1.08;;;0.50;;
51292;SDS011;37377;45.186;9.778;2022-08-21T15:28:18;7.95;;;0.77;;
51292;SDS011;37377;45.186;9.778;2022-08-21T15:30:46;1.40;;;1.05;;
51292;SDS011;37377;45.186;9.778;2022-08-21T15:33:13;1.00;;;0.50;;
51292;SDS011;37377;45.186;9.778;2022-08-21T15:35:41;0.70;;;0.60;;
51292;SDS011;37377;45.186;9.778;2022-08-21T15:38:08;4.28;;;0.60;;
51292;SDS011;37377;45.186;9.778;2022-08-21T15:40:37;1.15;;;0.68;;
51292;SDS011;37377;45.186;9.778;2022-08-21T15:43:04;0.70;;;0.60;;
51292;SDS011;37377;45.186;9.778;2022-08-21T15:45:32;2.88;;;0.50;;
51292;SDS011;37377;45.186;9.778;2022-08-21T15:47:59;3.92;;;0.80;;
51292;SDS011;37377;45.186;9.778;2022-08-21T15:50:27;4.15;;;1.35;;
51292;SDS011;37377;45.186;9.778;2022-08-21T15:52:55;2.10;;;1.35;;
51292;SDS011;37377;45.186;9.778;2022-08-21T15:55:23;3.42;;;0.80;;
51292;SDS011;37377;45.186;9.778;2022-08-21T15:57:50;1.88;;;1.05;;
51292;SDS011;37377;45.186;9.778;2022-08-21T16:00:24;8.50;;;0.80;;
51292;SDS011;37377;45.186;9.778;2022-08-21T16:02:53;3.33;;;1.02;;
51292;SDS011;37377;45.186;9.778;2022-08-21T16:05:22;2.08;;;1.00;;
51292;SDS011;37377;45.186;9.778;2022-08-21T16:07:50;3.78;;;0.90;;
51292;SDS011;37377;45.186;9.778;2022-08-21T16:10:20;1.17;;;0.82;;
51292;SDS011;37377;45.186;9.778;2022-08-21T16:12:56;2.58;;;1.15;;
51292;SDS011;37377;45.186;9.778;2022-08-21T16:15:25;3.20;;;0.80;;
51292;SDS011;37377;45.186;9.778;2022-08-21T16:17:52;0.80;;;0.80;;
51292;SDS011;37377;45.186;9.778;2022-08-21T16:20:21;4.57;;;0.90;;
51292;SDS011;37377;45.186;9.778;2022-08-21T16:22:52;7.70;;;0.90;;
51292;SDS011;37377;45.186;9.778;2022-08-21T16:25:20;5.10;;;1.17;;
51292;SDS011;37377;45.186;9.778;2022-08-21T16:27:49;3.50;;;0.70;;
51292;SDS011;37377;45.186;9.778;2022-08-21T16:30:25;1.25;;;0.60;;
51292;SDS011;37377;45.186;9.778;2022-08-21T16:32:53;1.85;;;0.80;;
51292;SDS011;37377;45.186;9.778;2022-08-21T16:35:21;7.10;;;0.98;;
51292;SDS011;37377;45.186;9.778;2022-08-21T16:37:48;3.80;;;1.00;;
51292;SDS011;37377;45.186;9.778;2022-08-21T16:40:19;2.17;;;0.80;;
51292;SDS011;37377;45.186;9.778;2022-08-21T16:42:52;4.03;;;0.85;;
51292;SDS011;37377;45.186;9.778;2022-08-21T16:45:19;2.08;;;1.40;;
51292;SDS011;37377;45.186;9.778;2022-08-21T16:47:49;2.38;;;1.00;;
51292;SDS011;37377;45.186;9.778;2022-08-21T16:50:18;1.88;;;0.77;;
51292;SDS011;37377;45.186;9.778;2022-08-21T16:52:47;1.48;;;0.90;;
51292;SDS011;37377;45.186;9.778;2022-08-21T16:55:15;3.80;;;0.60;;
51292;SDS011;37377;45.186;9.778;2022-08-21T16:57:43;0.93;;;0.70;;
51292;SDS011;37377;45.186;9.778;2022-08-21T17:00:10;3.78;;;0.80;;
51292;SDS011;37377;45.186;9.778;2022-08-21T17:02:39;2.35;;;0.80;;
51292;SDS011;37377;45.186;9.778;2022-08-21T17:05:09;3.85;;;0.80;;
51292;SDS011;37377;45.186;9.778;2022-08-21T17:07:40;1.65;;;0.80;;
51292;SDS011;37377;45.186;9.778;2022-08-21T17:10:08;2.70;;;0.90;;
51292;SDS011;37377;45.186;9.778;2022-08-21T17:12:38;2.13;;;0.90;;
51292;SDS011;37377;45.186;9.778;2022-08-21T17:15:08;1.60;;;0.95;;
51292;SDS011;37377;45.186;9.778;2022-08-21T17:17:48;2.78;;;0.70;;
51292;SDS011;37377;45.186;9.778;2022-08-21T17:20:15;0.80;;;0.80;;
51292;SDS011;37377;45.186;9.778;2022-08-21T17:22:44;0.90;;;0.70;;
51292;SDS011;37377;45.186;9.778;2022-08-21T17:25:11;2.72;;;0.77;;
51292;SDS011;37377;45.186;9.778;2022-08-21T17:27:39;3.60;;;0.82;;
51292;SDS011;37377;45.186;9.778;2022-08-21T17:30:06;4.22;;;1.23;;
51292;SDS011;37377;45.186;9.778;2022-08-21T17:32:33;6.75;;;0.80;;
51292;SDS011;37377;45.186;9.778;2022-08-21T17:35:00;1.60;;;0.90;;
51292;SDS011;37377;45.186;9.778;2022-08-21T17:37:27;7.95;;;0.80;;
51292;SDS011;37377;45.186;9.778;2022-08-21T17:39:55;2.28;;;1.20;;
51292;SDS011;37377;45.186;9.778;2022-08-21T17:42:22;4.38;;;1.00;;
51292;SDS011;37377;45.186;9.778;2022-08-21T17:44:50;11.15;;;1.00;;